| time (UTC) | temp F | wind direction | speed MPH | gust MPH | rain 1hr in | rain 24hr in | rain mn in | humidity % | barometer mb |
| 20260901233039 | 72 | 236 | 0.0 | 3.0 | 0.00 | 0.00 | 0.00 | 1 | 1014.6 |
| 20260901231536 | 73 | 63 | 0.0 | 2.0 | 0.00 | 0.00 | 0.00 | 1 | 1014.9 |
| 20260901230037 | 74 | 347 | 0.0 | 1.0 | 0.00 | 0.00 | 0.00 | 1 | 1015.1 |
| 20260901224534 | 78 | 24 | 3.0 | 5.0 | 0.00 | 0.00 | 0.00 | 1 | 1014.7 |
| 20260901223022 | 81 | 56 | 1.0 | 4.0 | 0.00 | 0.00 | 0.00 | 1 | 1013.6 |
| 20260901221518 | 82 | 243 | 0.0 | 1.0 | 0.00 | 0.00 | 0.00 | 1 | 1013.1 |
| 20260901220013 | 82 | 244 | 0.0 | 0.0 | 0.00 | 0.00 | 0.00 | 1 | 1013.2 |
| 20260901214509 | 82 | 243 | 0.0 | 1.0 | 0.00 | 0.00 | 0.00 | 1 | 1013.4 |
| 20260901213004 | 83 | 244 | 0.0 | 1.0 | 0.00 | 0.00 | 0.00 | 1 | 1013.4 |
| 20260901211601 | 84 | 244 | 0.0 | 2.0 | 0.00 | 0.00 | 0.00 | 1 | 1013.4 |
| 20260901210056 | 84 | 150 | 0.0 | 0.0 | 0.00 | 0.00 | 0.00 | 1 | 1013.5 |
| 20260901204552 | 85 | 134 | 0.0 | 4.0 | 0.00 | 0.00 | 0.00 | 1 | 1013.4 |
| 20260901203053 | 84 | 221 | 1.0 | 5.0 | 0.00 | 0.00 | 0.00 | 1 | 1013.5 |
| 20260901201550 | 84 | 184 | 2.0 | 6.0 | 0.00 | 0.00 | 0.00 | 1 | 1013.4 |
| 20260901200040 | 83 | 233 | 1.0 | 4.0 | 0.00 | 0.00 | 0.00 | 1 | 1013.6 |
| 20260901194538 | 83 | 248 | 1.0 | 6.0 | 0.00 | 0.00 | 0.00 | 1 | 1013.8 |
| 20260901193035 | 84 | 251 | 3.0 | 8.0 | 0.00 | 0.00 | 0.00 | 1 | 1013.7 |
| 20260901191528 | 83 | 237 | 2.0 | 5.0 | 0.00 | 0.00 | 0.00 | 1 | 1013.8 |
| 20260901190023 | 83 | 237 | 0.0 | 5.0 | 0.00 | 0.00 | 0.00 | 1 | 1014.1 |
| 20260901184619 | 83 | 244 | 1.0 | 5.0 | 0.00 | 0.00 | 0.00 | 1 | 1014.1 |
| 20260901183017 | 81 | 248 | 1.0 | 6.0 | 0.00 | 0.00 | 0.00 | 1 | 1014.0 |
| 20260901181511 | 82 | 126 | 0.0 | 6.0 | 0.00 | 0.00 | 0.00 | 1 | 1014.0 |
| 20260901180007 | 81 | 169 | 2.0 | 7.0 | 0.00 | 0.00 | 0.00 | 1 | 1013.9 |
| 20260901174508 | 79 | 239 | 2.0 | 6.0 | 0.00 | 0.00 | 0.00 | 1 | 1014.0 |
| 20260901173058 | 77 | 239 | 1.0 | 3.0 | 0.00 | 0.00 | 0.00 | 1 | 1014.2 |
| 20260901171553 | 76 | 46 | 0.0 | 1.0 | 0.00 | 0.00 | 0.00 | 1 | 1014.7 |
| 20260901170051 | 76 | 68 | 0.0 | 1.0 | 0.00 | 0.00 | 0.00 | 1 | 1015.2 |
| 20260901164545 | 75 | 119 | 0.0 | 4.0 | 0.00 | 0.00 | 0.00 | 1 | 1015.0 |
| 20260901163041 | 75 | 240 | 1.0 | 5.0 | 0.00 | 0.00 | 0.00 | 1 | 1015.0 |
| 20260901161546 | 74 | 233 | 0.0 | 2.0 | 0.00 | 0.00 | 0.00 | 1 | 1015.1 |
| 20260901160050 | 74 | 235 | 0.0 | 2.0 | 0.00 | 0.00 | 0.00 | 1 | 1015.6 |
| 20260901154533 | 74 | 101 | 0.0 | 1.0 | 0.00 | 0.00 | 0.00 | 1 | 1015.6 |
| 20260901153026 | 75 | 101 | 0.0 | 1.0 | 0.00 | 0.00 | 0.00 | 1 | 1016.2 |
| 20260901151522 | 75 | 168 | 0.0 | 0.0 | 0.00 | 0.00 | 0.00 | 1 | 1016.2 |
| 20260901150020 | 75 | 75 | 0.0 | 2.0 | 0.00 | 0.00 | 0.00 | 1 | 1016.5 |
| 20260901144510 | 75 | 34 | 0.0 | 2.0 | 0.00 | 0.00 | 0.00 | 1 | 1016.3 |
| 20260901143006 | 74 | 226 | 0.0 | 0.0 | 0.00 | 0.00 | 0.00 | 1 | 1016.2 |
| 20260901141501 | 74 | 227 | 0.0 | 1.0 | 0.00 | 0.00 | 0.00 | 1 | 1016.0 |
| 20260901140058 | 74 | 231 | 0.0 | 1.0 | 0.00 | 0.00 | 0.00 | 1 | 1015.7 |
| 20260901134554 | 73 | 236 | 0.0 | 1.0 | 0.00 | 0.00 | 0.00 | 1 | 1015.5 |
| 20260901133052 | 73 | 233 | 0.0 | 2.0 | 0.00 | 0.00 | 0.00 | 1 | 1015.7 |
| 20260901131549 | 73 | 242 | 0.0 | 2.0 | 0.00 | 0.00 | 0.00 | 1 | 1015.9 |
| 20260901130040 | 72 | 249 | 0.0 | 1.0 | 0.00 | 0.00 | 0.00 | 1 | 1015.7 |
| 20260901124537 | 72 | 249 | 0.0 | 1.0 | 0.00 | 0.00 | 0.00 | 1 | 1016.0 |
| 20260901123044 | 72 | 229 | 0.0 | 1.0 | 0.00 | 0.00 | 0.00 | 1 | 1016.1 |
| 20260901121528 | 71 | 248 | 0.0 | 3.0 | 0.00 | 0.00 | 0.00 | 1 | 1015.9 |
| 20260901120034 | 71 | 251 | 0.0 | 2.0 | 0.00 | 0.00 | 0.00 | 1 | 1015.8 |
| 20260901114517 | 70 | 184 | 0.0 | 0.0 | 0.00 | 0.00 | 0.00 | 1 | 1015.6 |
| 20260901113014 | 70 | 184 | 0.0 | 1.0 | 0.00 | 0.00 | 0.00 | 1 | 1015.8 |
| 20260901111509 | 70 | 221 | 0.0 | 1.0 | 0.00 | 0.00 | 0.00 | 1 | 1016.0 |
| 20260901110005 | 70 | 262 | 0.0 | 0.0 | 0.00 | 0.00 | 0.00 | 1 | 1016.2 |
| 20260901104600 | 70 | 262 | 0.0 | 0.0 | 0.00 | 0.00 | 0.00 | 1 | 1016.2 |
| 20260901103056 | 70 | 262 | 0.0 | 0.0 | 0.00 | 0.00 | 0.00 | 1 | 1016.2 |
| 20260901101553 | 70 | 262 | 0.0 | 0.0 | 0.00 | 0.00 | 0.00 | 1 | 1016.0 |
| 20260901100053 | 70 | 262 | 0.0 | 0.0 | 0.00 | 0.00 | 0.00 | 1 | 1015.8 |
| 20260901094543 | 70 | 262 | 0.0 | 0.0 | 0.00 | 0.00 | 0.00 | 1 | 1016.0 |
| 20260901093039 | 70 | 262 | 0.0 | 0.0 | 0.00 | 0.00 | 0.00 | 1 | 1015.8 |
| 20260901091535 | 70 | 262 | 0.0 | 0.0 | 0.00 | 0.00 | 0.00 | 1 | 1015.9 |
| 20260901090029 | 70 | 261 | 0.0 | 0.0 | 0.00 | 0.00 | 0.00 | 1 | 1015.9 |
| 20260901084526 | 70 | 261 | 0.0 | 0.0 | 0.00 | 0.00 | 0.00 | 1 | 1016.2 |
| 20260901083024 | 70 | 261 | 0.0 | 0.0 | 0.00 | 0.00 | 0.00 | 1 | 1016.4 |
| 20260901081518 | 70 | 261 | 0.0 | 0.0 | 0.00 | 0.00 | 0.00 | 1 | 1016.3 |
| 20260901080016 | 70 | 261 | 0.0 | 0.0 | 0.00 | 0.00 | 0.00 | 1 | 1016.3 |
| 20260901074508 | 70 | 261 | 0.0 | 0.0 | 0.00 | 0.00 | 0.00 | 1 | 1016.4 |
| 20260901073004 | 70 | 261 | 0.0 | 0.0 | 0.00 | 0.00 | 0.00 | 1 | 1016.5 |
| 20260901071604 | 70 | 261 | 0.0 | 0.0 | 0.00 | 0.00 | 0.00 | 1 | 1016.5 |
| 20260901070100 | 71 | 261 | 0.0 | 0.0 | 0.00 | 0.00 | 0.00 | 1 | 1016.5 |
| 20260901064551 | 71 | 261 | 0.0 | 1.0 | 0.00 | 0.00 | 0.00 | 1 | 1016.6 |
| 20260901063103 | 71 | 255 | 0.0 | 2.0 | 0.00 | 0.00 | 0.00 | 1 | 1016.8 |
| 20260901061554 | 71 | 231 | 0.0 | 1.0 | 0.00 | 0.00 | 0.00 | 1 | 1016.9 |
| 20260901060037 | 71 | 255 | 0.0 | 2.0 | 0.00 | 0.00 | 0.00 | 1 | 1017.1 |
| 20260901054534 | 72 | 158 | 0.0 | 1.0 | 0.00 | 0.00 | 0.00 | 1 | 1017.1 |
| 20260901053030 | 72 | 266 | 0.0 | 2.0 | 0.00 | 0.00 | 0.00 | 1 | 1017.3 |
| 20260901051534 | 72 | 246 | 0.0 | 2.0 | 0.00 | 0.00 | 0.00 | 1 | 1017.4 |
| 20260901050020 | 72 | 233 | 0.0 | 1.0 | 0.00 | 0.00 | 0.00 | 1 | 1017.6 |
| 20260901044515 | 72 | 255 | 0.0 | 1.0 | 0.00 | 0.00 | 0.00 | 1 | 1017.6 |
| 20260901043018 | 72 | 252 | 1.0 | 4.0 | 0.00 | 0.00 | 0.00 | 1 | 1017.6 |
| 20260901041507 | 72 | 220 | 1.0 | 3.0 | 0.00 | 0.00 | 0.00 | 1 | 1017.5 |
| 20260901040003 | 72 | 271 | 1.0 | 2.0 | 0.00 | 0.00 | 0.00 | 1 | 1017.5 |
| 20260901034558 | 72 | 211 | 0.0 | 2.0 | 0.00 | 0.00 | 0.00 | 1 | 1017.6 |
| 20260901033054 | 72 | 240 | 0.0 | 3.0 | 0.00 | 0.00 | 0.00 | 1 | 1017.7 |
| 20260901031556 | 72 | 243 | 0.0 | 2.0 | 0.00 | 0.00 | 0.00 | 1 | 1017.9 |
| 20260901030045 | 72 | 241 | 0.0 | 2.0 | 0.00 | 0.00 | 0.00 | 1 | 1017.9 |
| 20260901024541 | 72 | 257 | 0.0 | 0.0 | 0.00 | 0.00 | 0.00 | 1 | 1018.0 |
| 20260901023041 | 72 | 257 | 0.0 | 0.0 | 0.00 | 0.00 | 0.00 | 1 | 1018.2 |
| 20260901021534 | 72 | 257 | 0.0 | 1.0 | 0.00 | 0.00 | 0.00 | 1 | 1018.4 |
| 20260901020027 | 72 | 257 | 0.0 | 0.0 | 0.00 | 0.00 | 0.00 | 1 | 1018.3 |
| 20260901014523 | 72 | 257 | 0.0 | 0.0 | 0.00 | 0.00 | 0.00 | 1 | 1018.3 |
| 20260901013021 | 73 | 257 | 0.0 | 1.0 | 0.00 | 0.00 | 0.00 | 1 | 1018.4 |
| 20260901011521 | 73 | 257 | 0.0 | 0.0 | 0.00 | 0.00 | 0.00 | 1 | 1018.4 |
| 20260901010017 | 73 | 257 | 0.0 | 0.0 | 0.00 | 0.00 | 0.00 | 1 | 1018.2 |
| 20260901004511 | 72 | 257 | 0.0 | 1.0 | 0.00 | 0.00 | 0.00 | 1 | 1018.2 |
| 20260901003009 | 72 | 261 | 0.0 | 0.0 | 0.00 | 0.00 | 0.00 | 1 | 1018.2 |
| 20260901001502 | 72 | 261 | 0.0 | 0.0 | 0.00 | 0.00 | 0.00 | 1 | 1018.1 |
| 20260901000112 | 73 | 261 | 0.0 | 0.0 | 0.00 | 0.00 | 0.00 | 1 | 1018.0 |
| 20260831234558 | 73 | 261 | 0.0 | 0.0 | 0.00 | 0.00 | 0.00 | 1 | 1018.2 |